Time;durP1;ratioP1;P1;durP2;ratioP2;P2;SDS_P1;SDS_P2;PMS_P1;PMS_P2;Temp;Humidity;BMP_temperature;BMP_pressure;BME280_temperature;BME280_humidity;BME280_pressure;Samples;Min_cycle;Max_cycle;Signal;HPM_P1;HPM_P2
2021/09/10 00:00:08;;;;;;;9.55;5.45;;;27.90;99.90;;;;;;4154656;28;20524;-69
2021/09/10 00:02:16;;;;;;;8.77;4.75;;;27.90;99.90;;;;;;4158767;28;20073;-69
2021/09/10 00:04:22;;;;;;;9.50;4.47;;;27.90;99.90;;;;;;4157503;28;20065;-69
2021/09/10 00:06:27;;;;;;;9.93;4.50;;;28.00;99.90;;;;;;4156022;28;20076;-69
2021/09/10 00:08:32;;;;;;;7.35;4.03;;;27.90;99.90;;;;;;4156753;28;20056;-68
2021/09/10 00:10:36;;;;;;;9.95;4.22;;;28.00;99.90;;;;;;4154025;28;20519;-68
2021/09/10 00:12:42;;;;;;;6.03;3.50;;;28.00;99.90;;;;;;4156426;28;20088;-68
2021/09/10 00:14:47;;;;;;;5.97;3.65;;;28.00;99.90;;;;;;4156607;28;20354;-69
2021/09/10 00:16:51;;;;;;;7.93;3.13;;;28.00;99.90;;;;;;4154577;28;20046;-69
2021/09/10 00:18:56;;;;;;;7.30;3.00;;;28.10;99.90;;;;;;4154889;28;20499;-69
2021/09/10 00:21:01;;;;;;;5.97;3.00;;;28.10;99.90;;;;;;4155783;28;20072;-68
2021/09/10 00:23:06;;;;;;;5.60;2.95;;;28.10;99.90;;;;;;4152501;28;20120;-68
2021/09/10 00:25:11;;;;;;;6.32;3.10;;;28.10;99.90;;;;;;4150294;28;20053;-69
2021/09/10 00:27:16;;;;;;;3.88;2.30;;;28.20;99.90;;;;;;4152762;28;20100;-69
2021/09/10 00:29:21;;;;;;;4.30;2.35;;;28.20;99.90;;;;;;4150560;28;20054;-69
2021/09/10 00:31:25;;;;;;;5.20;2.50;;;28.30;99.90;;;;;;4151276;28;20042;-69
2021/09/10 00:33:34;;;;;;;3.45;2.40;;;28.20;99.90;;;;;;4151316;28;20493;-69
2021/09/10 00:35:39;;;;;;;5.32;2.58;;;28.30;99.90;;;;;;4153287;28;20400;-69
2021/09/10 00:37:44;;;;;;;3.13;2.38;;;28.30;99.90;;;;;;4151853;28;20042;-69
2021/09/10 00:39:49;;;;;;;5.10;2.47;;;28.30;99.90;;;;;;4154568;28;20049;-68
2021/09/10 00:41:54;;;;;;;4.43;2.40;;;28.30;99.90;;;;;;4158078;28;20065;-68
2021/09/10 00:44:03;;;;;;;3.60;2.30;;;28.30;99.90;;;;;;4161909;28;20049;-67
2021/09/10 00:46:08;;;;;;;3.85;2.33;;;28.30;99.90;;;;;;4162585;28;20412;-68
2021/09/10 00:48:13;;;;;;;7.18;2.42;;;28.30;99.90;;;;;;4160027;28;20530;-67
2021/09/10 00:50:19;;;;;;;3.20;2.30;;;28.20;99.90;;;;;;4161749;28;20050;-68
2021/09/10 00:52:23;;;;;;;3.70;2.30;;;28.20;99.90;;;;;;4161028;28;20531;-68
2021/09/10 00:54:28;;;;;;;4.50;2.13;;;28.10;99.90;;;;;;4162547;28;20059;-68
2021/09/10 00:56:33;;;;;;;8.07;2.42;;;28.20;99.90;;;;;;4160589;28;20492;-68
2021/09/10 00:58:38;;;;;;;7.47;3.08;;;28.10;99.90;;;;;;4166530;28;20037;-69
2021/09/10 01:00:43;;;;;;;3.28;2.50;;;28.20;99.90;;;;;;4162620;28;20634;-70
2021/09/10 01:02:49;;;;;;;4.32;2.60;;;28.20;99.90;;;;;;4162096;28;20042;-68
2021/09/10 01:04:55;;;;;;;5.07;2.60;;;28.30;99.90;;;;;;4164852;28;20046;-68
2021/09/10 01:07:00;;;;;;;4.47;2.47;;;28.30;99.90;;;;;;4151683;28;20124;-70
2021/09/10 01:09:08;;;;;;;3.92;2.80;;;28.30;99.90;;;;;;4167110;28;20048;-69
2021/09/10 01:11:33;;;;;;;3.40;2.30;;;28.30;99.90;;;;;;4165572;28;20109;-69
2021/09/10 01:13:39;;;;;;;6.40;2.35;;;28.30;99.90;;;;;;4158807;28;20050;-69
2021/09/10 01:15:44;;;;;;;7.75;2.60;;;28.40;99.90;;;;;;4165418;28;20481;-68
2021/09/10 01:17:49;;;;;;;7.05;2.78;;;28.30;99.90;;;;;;4164279;28;20060;-69
2021/09/10 01:19:54;;;;;;;4.38;2.60;;;28.30;99.90;;;;;;4163412;28;20107;-69
2021/09/10 01:22:01;;;;;;;3.95;2.55;;;28.30;99.90;;;;;;4168399;28;20045;-68
2021/09/10 01:24:06;;;;;;;5.90;2.78;;;28.40;99.90;;;;;;4166731;28;20124;-68
2021/09/10 01:26:11;;;;;;;5.63;3.13;;;28.40;99.90;;;;;;4160750;28;20052;-68
2021/09/10 01:28:17;;;;;;;4.82;2.83;;;28.50;99.90;;;;;;4178895;28;20053;-69
2021/09/10 01:30:34;;;;;;;4.88;2.40;;;28.40;99.90;;;;;;4163652;28;20046;-68
2021/09/10 01:32:39;;;;;;;4.00;2.58;;;28.50;99.90;;;;;;4162175;28;20079;-68
2021/09/10 01:34:45;;;;;;;7.88;2.50;;;28.50;99.90;;;;;;4163619;28;20044;-68
2021/09/10 01:36:51;;;;;;;3.22;2.22;;;28.40;99.90;;;;;;4162096;28;20057;-69
2021/09/10 01:38:56;;;;;;;3.88;2.40;;;28.40;99.90;;;;;;4167139;28;20041;-70
2021/09/10 01:41:04;;;;;;;4.55;2.08;;;28.40;99.90;;;;;;4167292;28;20050;-69
2021/09/10 01:43:09;;;;;;;5.55;1.60;;;28.50;99.90;;;;;;4164464;28;20120;-70
2021/09/10 01:45:18;;;;;;;4.55;1.95;;;28.40;99.90;;;;;;4162712;28;20456;-69
2021/09/10 01:47:27;;;;;;;3.00;1.70;;;28.50;99.90;;;;;;4166307;28;20034;-68
2021/09/10 01:49:32;;;;;;;4.68;1.60;;;28.60;99.90;;;;;;4165841;28;20091;-67
2021/09/10 01:51:38;;;;;;;3.03;1.60;;;28.60;99.90;;;;;;4167822;28;20049;-70
2021/09/10 01:53:54;;;;;;;4.00;1.42;;;28.70;99.90;;;;;;4167587;28;20068;-70
2021/09/10 01:55:59;;;;;;;5.20;1.70;;;28.70;99.90;;;;;;4163894;28;20045;-69
2021/09/10 01:58:11;;;;;;;6.75;2.40;;;28.70;99.90;;;;;;4165579;28;20614;-69
2021/09/10 02:00:18;;;;;;;5.88;2.10;;;28.70;99.90;;;;;;4157971;28;20041;-68
2021/09/10 02:02:24;;;;;;;5.85;2.10;;;28.60;99.90;;;;;;4158187;28;20050;-69
2021/09/10 02:04:29;;;;;;;7.47;2.78;;;28.50;99.90;;;;;;4157517;28;20049;-68
2021/09/10 02:06:34;;;;;;;3.97;2.10;;;28.50;99.90;;;;;;4159219;28;20065;-69
2021/09/10 02:08:42;;;;;;;6.03;2.35;;;28.40;99.90;;;;;;4188113;28;20466;-69
2021/09/10 02:10:47;;;;;;;5.72;2.35;;;28.50;99.90;;;;;;4155498;28;20053;-67
2021/09/10 02:12:57;;;;;;;3.00;1.70;;;28.50;99.90;;;;;;4158041;28;20042;-69
2021/09/10 02:15:06;;;;;;;2.80;1.95;;;28.50;99.90;;;;;;4152914;28;20093;-69
2021/09/10 02:17:14;;;;;;;3.72;1.95;;;28.50;99.90;;;;;;4158671;28;20041;-69
2021/09/10 02:19:22;;;;;;;4.10;2.03;;;28.50;99.90;;;;;;4158445;28;20041;-71
2021/09/10 02:21:28;;;;;;;6.35;1.98;;;28.60;99.90;;;;;;4154509;28;20048;-70
2021/09/10 02:23:46;;;;;;;5.60;2.20;;;28.60;99.90;;;;;;4161026;28;20050;-67
2021/09/10 02:26:00;;;;;;;4.03;2.20;;;28.70;99.90;;;;;;4140592;28;20046;-66
2021/09/10 02:28:08;;;;;;;3.47;2.33;;;28.80;99.90;;;;;;4154861;28;20120;-66
2021/09/10 02:30:13;;;;;;;2.63;2.00;;;28.80;99.90;;;;;;4158729;28;20109;-65
2021/09/10 02:32:27;;;;;;;3.08;2.15;;;28.80;99.90;;;;;;4155554;28;20057;-66
2021/09/10 02:34:34;;;;;;;3.05;1.98;;;28.80;99.90;;;;;;4156047;28;20038;-67
2021/09/10 02:36:39;;;;;;;2.88;1.70;;;28.90;99.90;;;;;;4152639;28;20120;-66
2021/09/10 02:38:47;;;;;;;3.67;1.75;;;28.80;99.90;;;;;;4150891;28;20057;-67
2021/09/10 02:40:55;;;;;;;2.70;1.90;;;28.80;99.90;;;;;;4152675;28;20073;-65
2021/09/10 02:43:00;;;;;;;3.60;2.13;;;28.80;99.90;;;;;;4152389;28;20042;-66
2021/09/10 02:45:06;;;;;;;4.50;2.35;;;28.80;99.90;;;;;;4184520;28;20052;-66
2021/09/10 02:47:10;;;;;;;2.95;2.22;;;28.70;99.90;;;;;;4148266;28;20096;-65
2021/09/10 02:49:16;;;;;;;5.28;2.40;;;28.60;99.90;;;;;;4154436;28;20054;-66
2021/09/10 02:51:21;;;;;;;4.45;2.72;;;28.60;99.90;;;;;;4151202;28;20050;-63
2021/09/10 02:53:27;;;;;;;3.65;2.47;;;28.40;99.90;;;;;;4156612;28;20092;-66
2021/09/10 02:55:32;;;;;;;4.63;2.30;;;28.40;99.90;;;;;;4156734;28;20048;-66
2021/09/10 02:57:36;;;;;;;3.42;2.35;;;28.50;99.90;;;;;;4136537;28;20049;-66
2021/09/10 02:59:41;;;;;;;2.50;2.10;;;28.60;99.90;;;;;;4153736;28;20095;-64
2021/09/10 03:01:47;;;;;;;4.07;2.45;;;28.70;99.90;;;;;;4160587;28;20045;-66
2021/09/10 03:03:53;;;;;;;3.00;2.60;;;28.80;99.90;;;;;;4166807;28;20053;-66
2021/09/10 03:05:58;;;;;;;2.85;2.03;;;28.90;99.90;;;;;;4161476;28;20041;-66
2021/09/10 03:08:02;;;;;;;5.20;1.95;;;29.00;99.90;;;;;;4164777;28;20050;-66
2021/09/10 03:10:08;;;;;;;4.38;2.17;;;29.00;99.90;;;;;;4160849;28;20476;-66
2021/09/10 03:12:15;;;;;;;4.22;2.17;;;29.00;99.90;;;;;;4163778;28;20048;-66
2021/09/10 03:14:20;;;;;;;2.13;1.88;;;29.00;99.90;;;;;;4161726;28;20038;-66
2021/09/10 03:16:25;;;;;;;2.17;1.65;;;28.90;99.90;;;;;;4162874;28;20046;-66
2021/09/10 03:18:30;;;;;;;3.47;2.10;;;29.00;99.90;;;;;;4159672;28;20042;-66
2021/09/10 03:20:34;;;;;;;2.40;1.85;;;28.90;99.90;;;;;;4159617;28;20103;-66
2021/09/10 03:22:38;;;;;;;2.97;2.00;;;29.00;99.90;;;;;;4160385;28;20087;-64
2021/09/10 03:24:43;;;;;;;3.20;2.28;;;29.00;99.90;;;;;;4158679;28;20046;-64
2021/09/10 03:26:48;;;;;;;2.85;1.90;;;29.10;99.90;;;;;;4161794;28;20054;-64
2021/09/10 03:28:52;;;;;;;2.45;2.10;;;29.20;99.90;;;;;;4161679;28;20058;-65
2021/09/10 03:30:56;;;;;;;3.05;2.08;;;29.30;99.90;;;;;;4160555;28;20050;-66
2021/09/10 03:33:01;;;;;;;2.83;2.20;;;29.40;99.90;;;;;;4159497;28;20095;-65
2021/09/10 03:35:10;;;;;;;4.00;2.00;;;29.40;99.90;;;;;;4165372;28;20049;-64
2021/09/10 03:37:15;;;;;;;2.78;1.88;;;29.40;99.90;;;;;;4162652;28;20077;-66
2021/09/10 03:39:20;;;;;;;3.22;2.10;;;29.30;99.90;;;;;;4163737;28;20049;-67
2021/09/10 03:41:33;;;;;;;5.70;1.83;;;29.30;99.90;;;;;;4161223;28;20072;-65
2021/09/10 03:43:37;;;;;;;2.53;1.80;;;29.30;99.90;;;;;;4160057;28;20446;-64
2021/09/10 03:45:42;;;;;;;5.30;2.10;;;29.40;99.90;;;;;;4160393;28;20450;-64
2021/09/10 03:47:46;;;;;;;5.85;2.00;;;29.60;99.90;;;;;;4157691;28;20038;-66
2021/09/10 03:49:51;;;;;;;4.30;2.00;;;29.70;99.90;;;;;;4153538;28;20121;-65
2021/09/10 03:51:55;;;;;;;4.97;2.17;;;29.80;99.90;;;;;;4153118;28;20046;-67
2021/09/10 03:54:09;;;;;;;2.30;2.00;;;29.90;99.90;;;;;;4154001;28;20068;-67
2021/09/10 03:56:18;;;;;;;3.83;1.90;;;29.90;99.90;;;;;;4135754;28;20081;-67
2021/09/10 03:58:22;;;;;;;3.58;1.90;;;29.80;99.90;;;;;;4163283;28;20071;-66
2021/09/10 04:00:30;;;;;;;2.47;1.55;;;29.70;99.90;;;;;;4163157;28;20061;-67
2021/09/10 04:02:38;;;;;;;2.38;1.65;;;29.50;99.90;;;;;;4163250;28;20046;-66
2021/09/10 04:04:47;;;;;;;3.92;1.80;;;29.40;99.90;;;;;;4166035;28;20033;-67
2021/09/10 04:06:54;;;;;;;2.50;1.65;;;29.40;99.90;;;;;;4158335;28;20042;-67
2021/09/10 04:09:01;;;;;;;3.58;1.70;;;29.30;99.90;;;;;;4171425;28;20143;-66
2021/09/10 04:11:07;;;;;;;2.28;1.63;;;29.30;99.90;;;;;;4158997;28;20246;-66
2021/09/10 04:13:13;;;;;;;2.47;1.70;;;29.20;99.90;;;;;;4161630;28;20643;-67
2021/09/10 04:15:18;;;;;;;3.25;1.70;;;29.10;99.90;;;;;;4165037;28;20067;-65
2021/09/10 04:17:23;;;;;;;4.05;1.95;;;29.10;99.90;;;;;;4192649;28;20036;-68
2021/09/10 04:19:28;;;;;;;3.45;2.20;;;29.00;99.90;;;;;;4162628;28;20052;-68
2021/09/10 04:21:33;;;;;;;4.00;2.25;;;28.80;99.90;;;;;;4158826;28;20538;-68
2021/09/10 04:23:38;;;;;;;3.78;2.22;;;28.70;99.90;;;;;;4154010;28;20128;-67
2021/09/10 04:25:42;;;;;;;4.35;1.92;;;28.70;99.90;;;;;;4158546;28;20048;-67
2021/09/10 04:27:51;;;;;;;4.95;2.35;;;28.70;99.90;;;;;;4161014;28;20516;-66
2021/09/10 04:29:58;;;;;;;4.68;1.80;;;28.70;99.90;;;;;;4166888;28;20117;-67
2021/09/10 04:32:05;;;;;;;2.75;1.90;;;28.60;99.90;;;;;;4161141;28;20458;-67
2021/09/10 04:34:24;;;;;;;5.03;2.08;;;28.30;99.90;;;;;;4166394;28;20042;-67
2021/09/10 04:36:32;;;;;;;3.65;1.67;;;28.40;99.90;;;;;;4157846;28;20156;-67
2021/09/10 04:38:42;;;;;;;4.43;1.98;;;28.60;99.90;;;;;;4162022;28;20558;-67
2021/09/10 04:40:46;;;;;;;5.13;1.90;;;28.70;99.90;;;;;;4155550;28;20432;-66
2021/09/10 04:42:56;;;;;;;3.78;1.95;;;28.80;99.90;;;;;;4162945;28;20046;-66
2021/09/10 04:45:07;;;;;;;3.08;1.35;;;29.00;99.90;;;;;;4166919;28;20054;-65
2021/09/10 04:47:25;;;;;;;2.60;1.38;;;29.10;99.90;;;;;;4163896;28;20037;-64
2021/09/10 04:49:35;;;;;;;1.33;1.23;;;29.10;99.90;;;;;;4169730;28;20332;-66
2021/09/10 04:51:44;;;;;;;2.05;1.10;;;29.20;99.90;;;;;;4172835;28;20045;-63
2021/09/10 04:54:02;;;;;;;2.90;1.10;;;29.40;99.90;;;;;;4177993;28;20040;-68
2021/09/10 04:56:07;;;;;;;1.67;0.65;;;29.50;99.90;;;;;;4168293;28;20061;-65
2021/09/10 04:58:14;;;;;;;2.97;0.90;;;29.60;99.90;;;;;;4142217;28;20050;-67
2021/09/10 05:00:18;;;;;;;1.77;1.10;;;29.70;99.90;;;;;;4158519;28;20133;-65
2021/09/10 05:02:23;;;;;;;1.52;1.00;;;29.80;99.90;;;;;;4153200;28;20046;-66
2021/09/10 05:04:27;;;;;;;5.90;3.53;;;29.90;99.90;;;;;;4155593;28;20056;-67
2021/09/10 05:06:32;;;;;;;4.90;3.30;;;30.00;99.90;;;;;;4160566;28;20052;-66
2021/09/10 05:08:36;;;;;;;2.47;1.73;;;30.00;99.90;;;;;;4156840;28;20046;-68
2021/09/10 05:10:41;;;;;;;2.13;1.30;;;30.10;99.90;;;;;;4158258;28;20084;-65
2021/09/10 05:12:46;;;;;;;1.20;0.90;;;30.10;99.90;;;;;;4154943;28;20590;-67
2021/09/10 05:14:52;;;;;;;2.42;1.17;;;30.10;99.90;;;;;;4158936;28;20435;-66
2021/09/10 05:16:56;;;;;;;2.00;1.13;;;30.10;99.90;;;;;;4159436;28;20109;-66
2021/09/10 05:19:01;;;;;;;3.60;1.75;;;30.10;99.90;;;;;;4160471;28;20041;-67
2021/09/10 05:21:05;;;;;;;2.33;1.50;;;30.20;99.90;;;;;;4159845;28;20128;-66
2021/09/10 05:23:11;;;;;;;1.90;0.90;;;30.30;99.90;;;;;;4154055;28;20416;-67
2021/09/10 05:25:15;;;;;;;0.70;0.68;;;30.40;99.90;;;;;;4154412;28;20200;-67
2021/09/10 05:27:22;;;;;;;1.20;1.02;;;30.30;99.90;;;;;;4155606;28;20140;-67
2021/09/10 05:29:28;;;;;;;2.35;1.30;;;30.40;99.90;;;;;;4152913;28;20045;-66
2021/09/10 05:31:33;;;;;;;2.08;1.23;;;30.40;99.90;;;;;;4153659;28;20057;-67
2021/09/10 05:33:37;;;;;;;2.38;1.27;;;30.40;99.90;;;;;;4156709;28;20045;-66
2021/09/10 05:35:42;;;;;;;2.25;0.90;;;30.40;99.90;;;;;;4156080;28;20149;-66
2021/09/10 05:37:47;;;;;;;3.22;1.08;;;30.30;99.90;;;;;;4153710;28;20050;-67
2021/09/10 05:39:52;;;;;;;1.92;0.70;;;30.30;99.90;;;;;;4158032;28;20087;-66
2021/09/10 05:42:00;;;;;;;1.73;0.75;;;30.30;99.90;;;;;;4154594;28;20069;-67
2021/09/10 05:44:07;;;;;;;1.58;1.05;;;30.10;99.90;;;;;;4142884;28;20046;-66
2021/09/10 05:46:12;;;;;;;3.80;1.00;;;30.20;99.90;;;;;;4153702;28;20057;-67
2021/09/10 05:48:20;;;;;;;2.70;0.98;;;30.20;99.90;;;;;;4149889;28;20151;-68
2021/09/10 05:50:25;;;;;;;1.75;0.75;;;30.30;99.90;;;;;;4184824;28;20060;-67
2021/09/10 05:52:30;;;;;;;0.73;0.70;;;30.40;99.90;;;;;;4150372;28;20056;-67
2021/09/10 05:54:35;;;;;;;1.90;0.95;;;30.40;99.90;;;;;;4152288;28;20042;-67
2021/09/10 05:56:39;;;;;;;2.20;0.93;;;30.40;99.90;;;;;;4152901;28;20042;-67
2021/09/10 05:58:44;;;;;;;1.23;0.68;;;30.50;99.90;;;;;;4149207;28;20103;-67
2021/09/10 06:00:48;;;;;;;0.65;0.60;;;30.70;99.90;;;;;;4148809;28;20038;-67
2021/09/10 06:02:56;;;;;;;1.70;0.73;;;30.70;99.90;;;;;;4153354;28;20054;-68
2021/09/10 06:05:19;;;;;;;2.15;0.75;;;30.70;99.90;;;;;;4162100;28;20136;-65
2021/09/10 06:07:36;;;;;;;0.70;0.65;;;30.80;99.90;;;;;;4152488;28;20471;-67
2021/09/10 06:09:41;;;;;;;0.63;0.50;;;30.80;99.90;;;;;;4151043;28;20057;-67
2021/09/10 06:11:52;;;;;;;1.33;0.70;;;30.90;99.90;;;;;;4150603;28;20076;-68
2021/09/10 06:14:06;;;;;;;0.40;0.40;;;31.00;99.90;;;;;;4153833;28;20053;-69
2021/09/10 06:16:19;;;;;;;0.95;0.40;;;31.00;99.90;;;;;;4155399;28;20038;-71
2021/09/10 06:18:24;;;;;;;1.33;0.52;;;31.00;99.90;;;;;;4157038;28;20042;-67
2021/09/10 06:20:31;;;;;;;1.08;0.50;;;31.00;99.90;;;;;;4154104;28;20050;-68
2021/09/10 06:22:39;;;;;;;1.55;0.40;;;31.10;99.90;;;;;;4149252;28;20050;-67
2021/09/10 06:24:43;;;;;;;0.90;0.47;;;31.20;99.90;;;;;;4146644;28;20045;-68
2021/09/10 06:26:48;;;;;;;0.47;0.40;;;31.20;99.90;;;;;;4147975;28;20050;-67
2021/09/10 06:28:53;;;;;;;0.82;0.43;;;31.30;99.90;;;;;;4172596;28;20096;-67
2021/09/10 06:30:59;;;;;;;0.45;0.40;;;31.30;99.90;;;;;;4147840;28;20046;-68
2021/09/10 06:33:06;;;;;;;0.43;0.40;;;31.30;99.90;;;;;;4148109;28;20449;-67
2021/09/10 06:35:10;;;;;;;0.50;0.30;;;31.30;99.90;;;;;;4147412;28;20072;-67
2021/09/10 06:37:15;;;;;;;0.68;0.25;;;31.40;99.90;;;;;;4145557;28;20088;-67
2021/09/10 06:39:20;;;;;;;0.65;0.30;;;31.40;99.90;;;;;;4146023;28;20487;-66
2021/09/10 06:41:24;;;;;;;0.55;0.40;;;31.50;99.90;;;;;;4146723;28;20069;-66
2021/09/10 06:43:29;;;;;;;0.90;0.32;;;31.50;99.90;;;;;;4145983;28;20045;-67
2021/09/10 06:45:33;;;;;;;1.27;0.40;;;31.40;99.90;;;;;;4150111;28;20046;-67
2021/09/10 06:47:38;;;;;;;0.90;0.40;;;31.30;99.90;;;;;;4149941;28;20053;-68
2021/09/10 06:49:43;;;;;;;0.40;0.30;;;31.40;99.90;;;;;;4152038;28;21084;-67
2021/09/10 06:51:47;;;;;;;0.10;0.10;;;31.50;99.90;;;;;;4153202;28;20042;-64
2021/09/10 06:53:52;;;;;;;0.63;0.20;;;31.40;99.90;;;;;;4147920;28;20060;-68
2021/09/10 06:55:56;;;;;;;0.47;0.30;;;31.40;99.90;;;;;;4152574;28;20061;-68
2021/09/10 06:58:01;;;;;;;0.35;0.20;;;31.40;99.90;;;;;;4150462;28;20060;-68
2021/09/10 07:00:06;;;;;;;1.85;0.28;;;31.50;99.90;;;;;;4150471;28;20042;-67
2021/09/10 07:02:10;;;;;;;0.40;0.20;;;31.50;99.90;;;;;;4146046;28;20046;-68
2021/09/10 07:04:15;;;;;;;1.15;0.30;;;31.60;99.90;;;;;;4152331;28;20042;-69
2021/09/10 07:06:20;;;;;;;0.40;0.20;;;31.50;99.90;;;;;;4152158;28;20504;-69
2021/09/10 07:08:25;;;;;;;0.88;0.30;;;31.40;99.90;;;;;;4147809;28;20136;-67
2021/09/10 07:10:30;;;;;;;0.55;0.20;;;31.40;99.90;;;;;;4149375;28;20050;-67
2021/09/10 07:12:34;;;;;;;1.45;0.30;;;31.60;99.90;;;;;;4115059;28;20114;-68
2021/09/10 07:14:39;;;;;;;0.32;0.28;;;31.60;99.90;;;;;;4150907;28;20065;-68
2021/09/10 07:16:43;;;;;;;2.45;0.30;;;31.70;99.90;;;;;;4151389;28;20045;-68
2021/09/10 07:18:48;;;;;;;1.10;0.32;;;31.60;99.90;;;;;;4144602;28;20044;-68
2021/09/10 07:20:52;;;;;;;1.27;0.40;;;31.60;99.90;;;;;;4149106;28;20104;-68
2021/09/10 07:22:57;;;;;;;1.65;0.82;;;31.60;99.90;;;;;;4151693;28;20101;-68
2021/09/10 07:25:01;;;;;;;0.20;0.20;;;31.70;99.90;;;;;;4153952;28;20048;-68
2021/09/10 07:27:06;;;;;;;0.50;0.20;;;31.80;99.90;;;;;;4153295;28;20076;-68
2021/09/10 07:29:10;;;;;;;0.68;0.20;;;31.90;99.90;;;;;;4149839;28;20054;-68
2021/09/10 07:31:15;;;;;;;0.30;0.20;;;31.90;99.90;;;;;;4155014;28;20053;-68
2021/09/10 07:33:19;;;;;;;0.22;0.20;;;31.90;99.90;;;;;;4186176;28;20036;-69
2021/09/10 07:35:24;;;;;;;0.32;0.20;;;31.90;99.90;;;;;;4147077;28;20489;-68
2021/09/10 07:37:30;;;;;;;0.30;0.20;;;31.90;99.90;;;;;;4152198;28;20046;-69
2021/09/10 07:39:34;;;;;;;0.20;0.20;;;31.90;99.90;;;;;;4152049;28;20105;-67
2021/09/10 07:41:39;;;;;;;0.30;0.20;;;32.00;99.90;;;;;;4157905;28;20037;-68
2021/09/10 07:43:44;;;;;;;0.47;0.20;;;32.00;99.90;;;;;;4154875;28;20045;-63
2021/09/10 07:45:49;;;;;;;0.80;0.30;;;32.00;99.90;;;;;;4163193;28;20711;-68
2021/09/10 07:47:56;;;;;;;0.30;0.30;;;32.00;99.90;;;;;;4165744;28;20256;-67
2021/09/10 07:50:00;;;;;;;2.72;0.30;;;32.00;99.90;;;;;;4155166;28;20501;-67
2021/09/10 07:52:05;;;;;;;1.38;0.10;;;32.00;99.90;;;;;;4155645;28;20046;-68
2021/09/10 07:54:10;;;;;;;0.30;0.22;;;32.00;99.90;;;;;;4164835;28;20052;-68
2021/09/10 07:56:15;;;;;;;0.68;0.32;;;31.90;99.90;;;;;;4157444;28;20037;-68
2021/09/10 07:58:20;;;;;;;1.65;0.30;;;31.90;99.90;;;;;;4156843;28;20042;-68
2021/09/10 08:00:25;;;;;;;0.55;0.38;;;32.00;99.90;;;;;;4157481;28;20041;-69
2021/09/10 08:02:29;;;;;;;1.50;0.13;;;31.90;99.90;;;;;;4158515;28;20037;-68
2021/09/10 08:04:34;;;;;;;0.30;0.20;;;31.90;99.90;;;;;;4157505;28;20144;-68
2021/09/10 08:06:38;;;;;;;0.77;0.30;;;31.90;99.90;;;;;;4157083;28;20049;-68
2021/09/10 08:08:43;;;;;;;0.35;0.22;;;31.90;99.90;;;;;;4151106;28;20057;-67
2021/09/10 08:10:47;;;;;;;0.22;0.22;;;31.90;99.90;;;;;;4151737;28;20400;-68
2021/09/10 08:12:52;;;;;;;4.28;0.43;;;31.90;99.90;;;;;;4151536;28;20050;-68
2021/09/10 08:14:56;;;;;;;0.38;0.32;;;31.90;99.90;;;;;;4152042;28;20096;-68
2021/09/10 08:17:01;;;;;;;0.50;0.20;;;32.00;99.90;;;;;;4151539;28;20076;-68
2021/09/10 08:19:06;;;;;;;0.77;0.30;;;32.00;99.90;;;;;;4174536;28;20041;-67
2021/09/10 08:21:19;;;;;;;0.22;0.20;;;32.00;99.90;;;;;;4157012;28;20067;-68
2021/09/10 08:23:25;;;;;;;0.47;0.28;;;32.00;99.90;;;;;;4143282;28;20139;-69
2021/09/10 08:25:30;;;;;;;1.70;0.30;;;32.00;99.90;;;;;;4159115;28;20105;-69
2021/09/10 08:27:36;;;;;;;1.30;0.45;;;32.00;99.90;;;;;;4158528;28;20409;-67
2021/09/10 08:29:42;;;;;;;1.08;0.28;;;32.00;99.90;;;;;;4160243;28;20061;-67
2021/09/10 08:31:47;;;;;;;0.32;0.32;;;32.10;99.90;;;;;;4160618;28;20046;-67
2021/09/10 08:33:51;;;;;;;1.42;0.50;;;32.10;99.90;;;;;;4162799;28;20054;-68
2021/09/10 08:35:56;;;;;;;0.95;0.35;;;32.10;99.90;;;;;;4156132;28;20065;-68
2021/09/10 08:38:00;;;;;;;0.95;0.40;;;32.20;99.90;;;;;;4167190;28;20625;-67
2021/09/10 08:40:06;;;;;;;0.82;0.20;;;32.30;99.90;;;;;;4157587;28;20038;-68
2021/09/10 08:42:10;;;;;;;0.45;0.43;;;32.20;99.90;;;;;;4154168;28;20042;-67
2021/09/10 08:44:15;;;;;;;0.77;0.50;;;32.20;99.90;;;;;;4155061;28;20081;-68
2021/09/10 08:46:19;;;;;;;0.70;0.50;;;32.20;99.90;;;;;;4155013;28;20041;-67
2021/09/10 08:48:24;;;;;;;1.10;0.60;;;32.20;99.90;;;;;;4156236;28;20053;-67
2021/09/10 08:50:29;;;;;;;1.63;0.65;;;32.30;99.90;;;;;;4161174;28;20108;-67
2021/09/10 08:52:33;;;;;;;1.38;0.40;;;32.30;99.90;;;;;;4153790;28;20072;-68
2021/09/10 08:54:40;;;;;;;1.05;0.60;;;32.30;99.90;;;;;;4155763;28;20037;-67
2021/09/10 08:56:45;;;;;;;3.17;0.82;;;32.30;99.90;;;;;;4176498;28;20041;-67
2021/09/10 08:58:50;;;;;;;2.20;0.90;;;32.30;99.90;;;;;;4151958;28;20042;-68
2021/09/10 09:00:57;;;;;;;1.73;0.70;;;32.40;99.90;;;;;;4153670;28;20081;-68
2021/09/10 09:03:20;;;;;;;2.80;0.90;;;32.40;99.90;;;;;;4147301;28;20496;-68
2021/09/10 09:05:44;;;;;;;3.47;1.70;;;32.40;99.90;;;;;;4148306;28;20056;-67
2021/09/10 09:08:19;;;;;;;2.97;2.55;;;32.40;99.90;;;;;;4146934;28;20038;-67
2021/09/10 09:11:01;;;;;;;3.92;1.85;;;32.30;99.90;;;;;;4145135;28;20107;-67
2021/09/10 09:13:34;;;;;;;1.80;1.40;;;32.30;99.90;;;;;;4173444;28;20048;-68
2021/09/10 09:50:10;;;;;;;1.52;1.02;;;31.60;99.90;;;;;;4218652;27;20120;-68
2021/09/10 09:52:34;;;;;;;3.97;1.35;;;31.70;99.90;;;;;;4207737;28;20040;-68
2021/09/10 09:55:02;;;;;;;3.42;1.10;;;31.70;99.90;;;;;;4225402;28;20090;-68
2021/09/10 09:57:26;;;;;;;2.67;1.00;;;31.70;99.90;;;;;;4227353;28;20047;-68
2021/09/10 09:59:54;;;;;;;0.95;0.60;;;31.80;99.90;;;;;;4189434;27;20147;-68
2021/09/10 10:01:58;;;;;;;2.28;0.90;;;31.80;99.90;;;;;;4215425;28;20040;-68
2021/09/10 10:04:21;;;;;;;2.97;1.20;;;31.80;99.90;;;;;;4217385;28;20048;-68
2021/09/10 10:06:26;;;;;;;3.65;0.95;;;31.90;99.90;;;;;;4216441;28;20658;-68
2021/09/10 10:09:03;;;;;;;2.58;0.82;;;31.90;99.90;;;;;;4214573;28;20127;-68
2021/09/10 10:11:14;;;;;;;1.77;0.75;;;31.80;99.90;;;;;;4234725;28;20085;-68
2021/09/10 10:13:28;;;;;;;2.90;0.85;;;31.80;99.90;;;;;;4205143;28;20489;-68
2021/09/10 10:15:33;;;;;;;1.52;0.55;;;31.80;99.90;;;;;;4208872;28;20048;-69
2021/09/10 10:17:38;;;;;;;0.98;0.60;;;31.90;99.90;;;;;;4212697;28;20454;-69
2021/09/10 10:19:43;;;;;;;2.72;0.80;;;31.80;99.90;;;;;;4216896;28;20064;-69
2021/09/10 10:21:51;;;;;;;1.30;0.50;;;31.80;99.90;;;;;;4196611;28;20039;-69
2021/09/10 10:23:56;;;;;;;1.30;0.63;;;31.80;99.90;;;;;;4208171;28;20122;-69
2021/09/10 10:26:08;;;;;;;1.95;0.70;;;31.70;99.90;;;;;;4208651;28;20509;-68
2021/09/10 10:28:12;;;;;;;0.95;0.73;;;31.70;99.90;;;;;;4210848;28;20153;-69
2021/09/10 10:31:14;;;;;;;3.05;0.88;;;31.70;99.90;;;;;;4208421;27;20484;-68
2021/09/10 10:33:27;;;;;;;3.28;1.88;;;31.70;99.90;;;;;;4199316;28;20072;-68
2021/09/10 10:35:39;;;;;;;1.52;1.20;;;31.50;99.90;;;;;;4210135;28;20048;-69
2021/09/10 10:37:45;;;;;;;2.83;1.95;;;31.50;99.90;;;;;;4212217;28;20131;-69
2021/09/10 10:39:54;;;;;;;4.13;2.22;;;31.40;99.90;;;;;;4194789;28;20060;-68
2021/09/10 10:41:59;;;;;;;7.47;5.35;;;31.40;99.90;;;;;;4203727;28;20040;-68
2021/09/10 10:44:32;;;;;;;9.05;6.10;;;31.40;99.90;;;;;;4194559;28;20048;-68
2021/09/10 10:46:39;;;;;;;10.50;8.27;;;31.40;99.90;;;;;;4216580;28;20055;-68
2021/09/10 10:48:44;;;;;;;11.20;7.80;;;31.40;99.90;;;;;;4209561;28;20058;-68
2021/09/10 10:50:48;;;;;;;6.85;4.85;;;31.40;99.90;;;;;;4210916;28;20044;-68
2021/09/10 10:52:56;;;;;;;6.32;3.90;;;31.30;99.90;;;;;;4208892;28;20425;-71
2021/09/10 10:55:25;;;;;;;7.03;2.35;;;31.20;99.90;;;;;;4209695;28;20046;-68
2021/09/10 10:57:30;;;;;;;5.60;2.08;;;31.00;99.90;;;;;;4207993;28;20090;-68
2021/09/10 10:59:35;;;;;;;7.63;2.33;;;30.70;99.90;;;;;;4181463;28;20581;-68
2021/09/10 11:02:04;;;;;;;5.22;1.90;;;30.00;99.90;;;;;;4169718;28;20046;-69
2021/09/10 11:04:09;;;;;;;6.43;2.20;;;29.70;99.90;;;;;;4187521;28;20129;-68
2021/09/10 11:06:28;;;;;;;4.15;1.70;;;29.60;99.90;;;;;;4205382;28;20044;-68
2021/09/10 11:08:43;;;;;;;3.47;1.33;;;29.70;99.90;;;;;;4204037;28;20093;-68
2021/09/10 11:10:53;;;;;;;7.18;3.15;;;29.80;99.90;;;;;;4175135;28;20045;-72
2021/09/10 11:12:58;;;;;;;6.85;2.80;;;29.60;99.90;;;;;;4189382;28;20600;-74
2021/09/10 11:15:16;;;;;;;4.05;3.13;;;29.70;99.90;;;;;;4186579;28;20451;-73
2021/09/10 11:17:26;;;;;;;7.45;4.72;;;29.60;99.90;;;;;;4186924;28;20576;-75
2021/09/10 11:19:30;;;;;;;7.97;3.58;;;29.60;99.90;;;;;;4180595;28;20052;-75
2021/09/10 11:21:35;;;;;;;5.00;2.85;;;29.70;99.90;;;;;;4188034;28;20041;-72
2021/09/10 11:23:40;;;;;;;4.97;2.50;;;29.70;99.90;;;;;;4195439;28;20049;-74
2021/09/10 11:25:46;;;;;;;8.60;3.70;;;29.60;99.90;;;;;;4186319;28;20465;-74
2021/09/10 11:27:50;;;;;;;3.85;2.60;;;29.60;99.90;;;;;;4201559;28;20075;-72
2021/09/10 11:29:55;;;;;;;6.40;2.45;;;29.60;99.90;;;;;;4195324;28;20544;-74
2021/09/10 11:32:18;;;;;;;3.95;1.60;;;29.60;99.90;;;;;;4203407;28;20048;-72
2021/09/10 11:34:33;;;;;;;4.28;1.83;;;29.70;99.90;;;;;;4187149;28;20547;-76
2021/09/10 11:36:38;;;;;;;6.40;2.38;;;29.80;99.90;;;;;;4182925;28;20074;-77
2021/09/10 11:38:42;;;;;;;7.72;2.42;;;29.80;99.90;;;;;;4195312;28;20044;-75